KTC weather

Katiola Airport
Katiola, Vallée du Bandama, Côte d'Ivoire

Public forecast

Using degrees Celsius for public forecast. Weather courtesy of forecast.io.

Closest aviation weather report (METAR) to Katiola Airport

Closest report is Bouaké Airport, 23.7 nm (43.8 km) S. Retrieved 2020/05/30 19:00 UTC (11 minutes ago):

DIBK 301900Z 18006KT 8000 TS SCT013 FEW020CB 24/22 Q1013 NOSIG

Closest aviation forecast (TAF) to Katiola Airport

Closest forecast is Bouaké Airport, 23.7 nm (43.8 km) S. Retrieved 2020/05/30 18:00 UTC (1 hour ago):

TAF TAF DIBK 301700Z 3018/3118 22004KT 9999 SCT013 TEMPO 3020/3024 TS BKN013 FEW025CB TEMPO 3100/3106 BKN013